»·PEaware :: N165YP KSLE-KPDX

N165YP :: KSLE-KPDX

FLIGHT INFORMATION

Flight Status: Arrived
Operator: Privately registered:
United States
More flights under this callsign
Pilot: Allen F. (27411)
Aircraft: CESSNA 172 SKYHAWK
(C172)
More flights by this aircraft type
Origin: KSLE McNary
United States
Destination: KPDX Portland Intl
United States
More flights between these airports :: More routes between these airports
Route: +GNNET V23 BTG
File this flight plan on PilotEdge
Remarks: +CW / i'd like the ILS rwy 10L at KPDX. Thank you
Altitude:
(Current/Filed)
4,000ft
Speed:
(Current/Filed)
110kts
Departed: 01-Apr-20 05:38 PM
Arrived: 01-Apr-20 06:15 PM
Distance/Time
Traveled:
44nm/0:37
Distance/Time
To Go:
Arrived

Flight Plot

Page will automatically refresh every two minutes.

Flight plan parsing failed; only flown route is shown


Map Options




Map Legend


Flown Route
Filed Route
Departure Airport
Arrival Airport
Navaid (VOR, NDB)
Fix

Horizontal Profiles

Position Reports

Time Latitude Longitude Heading Altitude Ground
Speed
01-Apr-20 17:11 44.906487 -123.006393 1 217ft 0kts
01-Apr-20 17:12 44.906487 -123.006393 1 217ft 0kts
01-Apr-20 17:13 44.906487 -123.006393 1 217ft 0kts
01-Apr-20 17:14 44.906487 -123.006393 1 217ft 0kts
01-Apr-20 17:15 44.906487 -123.006393 1 217ft 0kts
01-Apr-20 17:16 44.906487 -123.006393 1 217ft 0kts
01-Apr-20 17:17 44.906487 -123.006393 1 217ft 0kts
01-Apr-20 17:18 44.906487 -123.006393 1 217ft 0kts
01-Apr-20 17:19 44.906487 -123.006393 1 217ft 0kts
01-Apr-20 17:20 44.906487 -123.006393 1 217ft 0kts
01-Apr-20 17:21 44.906487 -123.006393 1 217ft 0kts
01-Apr-20 17:22 44.906487 -123.006393 1 217ft 0kts
01-Apr-20 17:23 44.905043 -123.005547 177 217ft 18kts
01-Apr-20 17:24 44.902600 -123.004871 142 217ft 0kts
01-Apr-20 17:25 44.902472 -123.004705 149 217ft 0kts
01-Apr-20 17:26 44.902472 -123.004705 148 217ft 0kts
01-Apr-20 17:27 44.902472 -123.004704 148 217ft 0kts
01-Apr-20 17:28 44.902472 -123.004705 148 217ft 0kts
01-Apr-20 17:29 44.902472 -123.004705 148 217ft 0kts
01-Apr-20 17:30 44.902472 -123.004705 148 217ft 0kts
01-Apr-20 17:31 44.902472 -123.004705 148 217ft 0kts
01-Apr-20 17:32 44.902472 -123.004705 148 217ft 0kts
01-Apr-20 17:33 44.902472 -123.004705 148 217ft 0kts
01-Apr-20 17:34 44.902472 -123.004705 148 217ft 0kts
01-Apr-20 17:35 44.902472 -123.004705 148 217ft 0kts
01-Apr-20 17:36 44.902452 -123.004487 122 217ft 0kts
01-Apr-20 17:37 44.909354 -123.003007 2 322ft 80kts
01-Apr-20 17:38 44.929175 -122.988168 21 1360ft 83kts
01-Apr-20 17:39 44.948736 -122.973519 37 2315ft 87kts
01-Apr-20 17:40 44.967624 -122.954861 25 3246ft 81kts
01-Apr-20 17:41 44.986995 -122.937699 30 4069ft 85kts
01-Apr-20 17:42 45.007294 -122.922599 28 4830ft 90kts
01-Apr-20 17:43 45.032356 -122.902928 21 5088ft 115kts
01-Apr-20 17:44 45.062150 -122.882233 24 5072ft 120kts
01-Apr-20 17:45 45.091864 -122.859932 24 5071ft 117kts
01-Apr-20 17:46 45.121312 -122.842487 13 5072ft 114kts
01-Apr-20 17:47 45.151823 -122.838174 354 5072ft 111kts
01-Apr-20 17:48 45.179272 -122.839473 354 5072ft 111kts
01-Apr-20 17:49 45.210985 -122.841185 354 5072ft 105kts
01-Apr-20 17:50 45.242316 -122.842901 353 5072ft 104kts
01-Apr-20 17:51 45.271221 -122.844451 353 5072ft 104kts
01-Apr-20 17:52 45.300241 -122.846067 353 5072ft 104kts
01-Apr-20 17:53 45.329183 -122.847693 354 5072ft 104kts
01-Apr-20 17:54 45.358202 -122.849337 353 5072ft 104kts
01-Apr-20 17:55 45.387043 -122.852534 350 5072ft 104kts
01-Apr-20 17:56 45.415725 -122.856449 350 5072ft 103kts
01-Apr-20 17:57 45.444442 -122.860362 351 4805ft 111kts
01-Apr-20 17:58 45.476567 -122.862877 353 3731ft 122kts
01-Apr-20 17:59 45.508484 -122.865891 350 2988ft 97kts
01-Apr-20 18:00 45.536353 -122.869809 349 3005ft 103kts
01-Apr-20 18:01 45.565126 -122.873967 349 3004ft 104kts
01-Apr-20 18:02 45.593940 -122.878100 349 3004ft 104kts
01-Apr-20 18:03 45.622890 -122.882534 349 3004ft 104kts
01-Apr-20 18:04 45.651835 -122.884390 18 3003ft 108kts
01-Apr-20 18:05 45.678476 -122.864677 23 3004ft 109kts
01-Apr-20 18:06 45.690877 -122.825601 60 2930ft 119kts
01-Apr-20 18:07 45.678137 -122.789097 151 2984ft 96kts
01-Apr-20 18:08 45.658258 -122.761989 130 2847ft 119kts
01-Apr-20 18:09 45.643051 -122.720855 113 2159ft 111kts
01-Apr-20 18:10 45.628939 -122.684666 125 1507ft 104kts
01-Apr-20 18:11 45.615678 -122.650023 128 931ft 96kts
01-Apr-20 18:12 45.602898 -122.616949 116 462ft 87kts
01-Apr-20 18:13 45.593559 -122.592502 124 27ft 42kts
01-Apr-20 18:14 45.590305 -122.585964 276 27ft 0kts
01-Apr-20 18:15 45.588165 -122.581798 133 27ft 15kts
01-Apr-20 18:16 45.585623 -122.576942 214 27ft 0kts
01-Apr-20 18:17 45.584997 -122.577803 25 27ft 0kts
01-Apr-20 18:18 45.584997 -122.577803 25 27ft 0kts
01-Apr-20 18:19 45.584997 -122.577803 25 27ft 0kts
01-Apr-20 18:20 45.584997 -122.577803 25 27ft 0kts
01-Apr-20 18:21 45.584997 -122.577803 25 27ft 0kts
01-Apr-20 18:22 45.584997 -122.577803 25 27ft 0kts
01-Apr-20 18:23 45.584997 -122.577803 25 27ft 0kts
01-Apr-20 18:24 45.584997 -122.577803 25 27ft 0kts
01-Apr-20 18:25 45.584997 -122.577803 25 27ft 0kts
01-Apr-20 18:26 45.584997 -122.577803 25 27ft 0kts
01-Apr-20 18:27 45.584997 -122.577803 25 27ft 0kts
01-Apr-20 18:29 45.584997 -122.577803 25 27ft 0kts

Navigation Log

Ident Type
Flight plan parsing failed, navigation log unavailable